Time;durP1;ratioP1;P1;durP2;ratioP2;P2;SDS_P1;SDS_P2;PMS_P1;PMS_P2;Temp;Humidity;BMP_temperature;BMP_pressure;BME280_temperature;BME280_humidity;BME280_pressure;Samples;Min_cycle;Max_cycle;Signal;HPM_P1;HPM_P2
2023/05/05 00:01:53;;;;;;;6.15;3.25;;;9.70;99.90;;;;;;4789365;29;20118;-86
2023/05/05 00:04:21;;;;;;;10.43;3.28;;;9.70;99.90;;;;;;4805711;29;20053;-86
2023/05/05 00:06:47;;;;;;;3.83;2.25;;;9.80;99.90;;;;;;4789458;29;20184;-86
2023/05/05 00:09:13;;;;;;;5.50;2.97;;;9.70;99.90;;;;;;4790016;29;20047;-88
2023/05/05 00:11:39;;;;;;;9.43;3.22;;;9.70;99.90;;;;;;4792307;29;20059;-86
2023/05/05 00:14:05;;;;;;;9.27;3.08;;;9.70;99.90;;;;;;4790394;29;20050;-86
2023/05/05 00:16:31;;;;;;;5.20;2.85;;;9.70;99.90;;;;;;4790393;29;20069;-86
2023/05/05 00:18:57;;;;;;;5.10;2.85;;;9.70;99.90;;;;;;4789369;29;20054;-85
2023/05/05 00:21:23;;;;;;;8.80;2.88;;;9.70;99.90;;;;;;4789922;29;20051;-86
2023/05/05 00:23:49;;;;;;;7.55;2.72;;;9.60;99.90;;;;;;4774519;29;20030;-88
2023/05/05 00:26:17;;;;;;;5.78;2.38;;;9.70;99.90;;;;;;4807957;29;20046;-86
2023/05/05 00:28:43;;;;;;;10.18;3.22;;;9.60;99.90;;;;;;4808971;29;20069;-86
2023/05/05 00:31:09;;;;;;;7.88;3.28;;;9.60;99.90;;;;;;4793670;29;20046;-87
2023/05/05 00:33:35;;;;;;;4.35;2.38;;;9.60;99.90;;;;;;4808296;29;20062;-86
2023/05/05 00:36:01;;;;;;;7.30;3.38;;;9.60;99.90;;;;;;4825164;29;20034;-86
2023/05/05 00:38:30;;;;;;;6.20;2.97;;;9.60;99.90;;;;;;4810652;29;20496;-85
2023/05/05 00:40:56;;;;;;;5.13;3.08;;;9.60;99.90;;;;;;4825057;29;20079;-86
2023/05/05 00:43:22;;;;;;;6.63;2.45;;;9.60;99.90;;;;;;4791960;29;20051;-86
2023/05/05 00:45:55;;;;;;;5.90;2.88;;;9.60;99.90;;;;;;4792930;29;20473;-86
2023/05/05 00:48:23;;;;;;;8.82;3.33;;;9.60;99.90;;;;;;4792296;29;20058;-86
2023/05/05 00:50:49;;;;;;;4.13;2.70;;;9.90;99.90;;;;;;4777170;29;20051;-86
2023/05/05 00:53:14;;;;;;;5.30;2.60;;;9.60;99.90;;;;;;4804170;29;20108;-85
2023/05/05 00:55:40;;;;;;;12.18;3.40;;;9.70;99.90;;;;;;4810318;29;20106;-86
2023/05/05 00:58:07;;;;;;;5.97;2.55;;;9.60;99.90;;;;;;4824642;29;20057;-86
2023/05/05 01:00:33;;;;;;;11.75;2.78;;;9.60;99.90;;;;;;4809349;29;20042;-86
2023/05/05 01:02:59;;;;;;;6.22;3.22;;;10.30;99.90;;;;;;4805764;29;20117;-86
2023/05/05 01:05:30;;;;;;;12.23;3.38;;;9.70;99.90;;;;;;4808803;29;20125;-85
2023/05/05 01:08:04;;;;;;;7.28;3.35;;;9.80;99.90;;;;;;4793079;29;20099;-86
2023/05/05 01:10:35;;;;;;;5.28;2.97;;;10.00;99.90;;;;;;4791715;29;20058;-87
2023/05/05 01:13:04;;;;;;;6.88;3.45;;;9.60;99.90;;;;;;4808250;29;20382;-86
2023/05/05 01:15:32;;;;;;;9.13;3.47;;;9.60;99.90;;;;;;4800657;29;20393;-86
2023/05/05 01:18:28;;;;;;;8.15;2.90;;;9.90;99.90;;;;;;4824714;29;20073;-86
2023/05/05 01:21:05;;;;;;;7.90;3.17;;;9.60;99.90;;;;;;4809041;29;20568;-86
2023/05/05 01:23:40;;;;;;;6.72;3.00;;;9.60;99.90;;;;;;4794718;29;20077;-86
2023/05/05 01:26:15;;;;;;;6.32;2.88;;;9.60;99.90;;;;;;4799321;29;20511;-86
2023/05/05 01:29:19;;;;;;;5.68;2.53;;;9.50;99.90;;;;;;4809870;29;20062;-86
2023/05/05 01:31:50;;;;;;;7.60;3.10;;;9.60;99.90;;;;;;4734524;30;20431;-87
2023/05/05 01:34:19;;;;;;;7.03;3.10;;;9.60;99.90;;;;;;4734568;30;20072;-86
2023/05/05 01:36:52;;;;;;;5.57;2.78;;;10.10;99.90;;;;;;4742167;30;20072;-87
2023/05/05 01:39:19;;;;;;;6.43;2.95;;;9.60;99.90;;;;;;4729065;30;20060;-87
2023/05/05 01:41:48;;;;;;;6.68;2.58;;;9.60;99.90;;;;;;4734419;30;20060;-86
2023/05/05 01:44:15;;;;;;;5.75;2.42;;;9.50;99.90;;;;;;4725055;30;20127;-87
2023/05/05 01:46:41;;;;;;;8.15;2.80;;;9.50;99.90;;;;;;4735906;30;20061;-87
2023/05/05 01:49:10;;;;;;;10.57;3.13;;;9.50;99.90;;;;;;4752130;30;20052;-87
2023/05/05 01:51:37;;;;;;;4.65;2.72;;;9.70;99.90;;;;;;4750879;30;20052;-87
2023/05/05 01:54:09;;;;;;;7.10;2.88;;;9.40;99.90;;;;;;4737357;30;20063;-87
2023/05/05 01:56:37;;;;;;;9.02;2.92;;;9.40;99.90;;;;;;4735628;30;20068;-87
2023/05/05 01:59:05;;;;;;;5.55;2.72;;;9.30;99.90;;;;;;4745635;30;20056;-86
2023/05/05 02:01:36;;;;;;;6.05;2.55;;;9.40;99.90;;;;;;4729368;30;20060;-87
2023/05/05 02:04:03;;;;;;;7.55;2.67;;;9.40;99.90;;;;;;4736573;30;20063;-87
2023/05/05 02:06:31;;;;;;;7.15;2.58;;;9.40;99.90;;;;;;4736777;30;20516;-87
2023/05/05 02:08:57;;;;;;;10.60;2.72;;;9.50;99.90;;;;;;4783336;29;20065;-87
2023/05/05 02:11:25;;;;;;;4.93;2.60;;;9.40;99.90;;;;;;4807938;29;20070;-87
2023/05/05 02:13:53;;;;;;;4.30;2.20;;;9.40;99.90;;;;;;4801502;29;20057;-87
2023/05/05 02:16:21;;;;;;;5.03;2.70;;;9.30;99.90;;;;;;4805733;29;20054;-87
2023/05/05 02:18:48;;;;;;;6.40;3.05;;;9.30;99.90;;;;;;4799035;29;20058;-87
2023/05/05 02:21:16;;;;;;;8.82;3.13;;;9.40;99.90;;;;;;4805021;29;20054;-87
2023/05/05 02:23:45;;;;;;;6.85;2.47;;;9.40;99.90;;;;;;4779992;29;20069;-88
2023/05/05 02:26:14;;;;;;;9.02;2.85;;;9.40;99.90;;;;;;4792304;29;20488;-87
2023/05/05 02:28:47;;;;;;;6.60;2.50;;;9.40;99.90;;;;;;4793118;29;20133;-88
2023/05/05 02:31:16;;;;;;;7.90;2.80;;;9.40;99.90;;;;;;4808184;29;20054;-87
2023/05/05 02:33:43;;;;;;;5.88;2.17;;;9.40;99.90;;;;;;4823390;29;20047;-87
2023/05/05 02:36:24;;;;;;;7.50;2.78;;;10.10;99.90;;;;;;4809454;29;20058;-87
2023/05/05 02:39:16;;;;;;;4.30;2.20;;;9.70;99.90;;;;;;4804709;29;20112;-87
2023/05/05 02:41:43;;;;;;;4.57;2.30;;;9.40;99.90;;;;;;4823236;29;20590;-87
2023/05/05 02:44:12;;;;;;;4.57;2.33;;;9.50;99.90;;;;;;4824266;29;20058;-87
2023/05/05 02:46:38;;;;;;;4.72;2.70;;;9.40;99.90;;;;;;4808924;29;20126;-86
2023/05/05 02:53:17;;;;;;;6.55;2.45;;;9.40;99.90;;;;;;4815564;29;20049;-86
2023/05/05 02:55:50;;;;;;;4.97;2.50;;;9.50;99.90;;;;;;4806759;29;20053;-85
2023/05/05 02:58:36;;;;;;;6.22;2.80;;;9.50;99.90;;;;;;4813091;29;20055;-87
2023/05/05 03:01:07;;;;;;;8.02;2.20;;;9.50;99.90;;;;;;4791658;29;20642;-86
2023/05/05 03:03:39;;;;;;;5.28;2.25;;;9.50;99.90;;;;;;4795637;29;20408;-86
2023/05/05 03:06:17;;;;;;;11.80;2.70;;;9.50;99.90;;;;;;4790740;29;20061;-86
2023/05/05 03:08:53;;;;;;;5.40;2.35;;;9.40;99.90;;;;;;4816562;29;20410;-86
2023/05/05 03:11:28;;;;;;;6.65;2.83;;;9.40;99.90;;;;;;4789998;29;20046;-87
2023/05/05 03:14:16;;;;;;;5.88;2.78;;;9.40;99.90;;;;;;4807192;29;20046;-85
2023/05/05 03:16:43;;;;;;;6.97;2.55;;;9.40;99.90;;;;;;4807365;29;20050;-86
2023/05/05 03:19:11;;;;;;;6.05;2.10;;;9.20;99.90;;;;;;4789854;29;20046;-83
2023/05/05 03:21:38;;;;;;;4.93;2.03;;;9.30;99.90;;;;;;4805881;29;20043;-83
2023/05/05 03:24:18;;;;;;;4.75;1.80;;;9.40;99.90;;;;;;4793730;29;20055;-83
2023/05/05 03:26:45;;;;;;;6.68;2.05;;;9.30;99.90;;;;;;4823589;29;20137;-83
2023/05/05 03:29:12;;;;;;;6.22;2.60;;;9.80;99.90;;;;;;4824342;29;20050;-84
2023/05/05 03:31:43;;;;;;;5.32;2.08;;;9.20;99.90;;;;;;4824461;29;20411;-86
2023/05/05 03:34:09;;;;;;;5.38;2.35;;;9.20;99.90;;;;;;4800421;29;20090;-85
2023/05/05 03:36:35;;;;;;;6.28;2.42;;;9.40;99.90;;;;;;4790201;29;20627;-86
2023/05/05 03:39:01;;;;;;;5.57;2.30;;;9.20;99.90;;;;;;4789376;29;20053;-86
2023/05/05 03:41:27;;;;;;;4.57;2.03;;;9.20;99.90;;;;;;4805533;29;20039;-86
2023/05/05 03:43:53;;;;;;;4.13;1.88;;;9.10;99.90;;;;;;4775047;29;20493;-88
2023/05/05 03:46:19;;;;;;;6.30;2.75;;;9.10;99.90;;;;;;4821490;29;20130;-86
2023/05/05 03:48:45;;;;;;;3.47;1.83;;;9.10;99.90;;;;;;4793636;29;20567;-86
2023/05/05 03:51:12;;;;;;;3.88;2.00;;;9.60;99.90;;;;;;4805533;29;20050;-86
2023/05/05 03:53:37;;;;;;;4.50;1.92;;;9.00;99.90;;;;;;4789747;29;20130;-87
2023/05/05 03:56:04;;;;;;;5.97;2.22;;;9.00;99.90;;;;;;4789792;29;20556;-86
2023/05/05 03:58:29;;;;;;;5.60;2.72;;;9.00;99.90;;;;;;4789176;29;20054;-86
2023/05/05 04:00:56;;;;;;;3.90;1.65;;;9.10;99.90;;;;;;4790664;29;20057;-86
2023/05/05 04:03:21;;;;;;;5.35;1.80;;;9.10;99.90;;;;;;4793253;29;20493;-86
2023/05/05 04:05:47;;;;;;;4.53;2.58;;;9.20;99.90;;;;;;4810919;29;20070;-86
2023/05/05 04:08:13;;;;;;;5.13;1.85;;;9.10;99.90;;;;;;4816745;29;20585;-86
2023/05/05 04:10:39;;;;;;;3.40;1.90;;;9.10;99.90;;;;;;4808501;29;20092;-86
2023/05/05 04:13:05;;;;;;;4.97;1.83;;;9.20;99.90;;;;;;4827109;29;20054;-86
2023/05/05 04:15:31;;;;;;;3.35;1.80;;;9.20;99.90;;;;;;4827471;29;20047;-86
2023/05/05 04:17:56;;;;;;;4.30;1.98;;;9.20;99.90;;;;;;4809371;29;20046;-86
2023/05/05 04:20:22;;;;;;;4.13;1.98;;;9.30;99.90;;;;;;4827079;29;20099;-86
2023/05/05 04:22:48;;;;;;;3.67;1.52;;;9.30;99.90;;;;;;4810633;29;20526;-87
2023/05/05 04:25:14;;;;;;;3.65;1.50;;;9.50;99.90;;;;;;4805912;29;20062;-86
2023/05/05 04:27:39;;;;;;;2.72;1.23;;;9.50;99.90;;;;;;4816713;29;20114;-86
2023/05/05 04:30:06;;;;;;;3.08;1.60;;;9.60;99.90;;;;;;4777558;29;20070;-86
2023/05/05 04:32:32;;;;;;;2.53;1.30;;;9.50;99.90;;;;;;4792367;29;20195;-87
2023/05/05 04:34:58;;;;;;;3.45;1.75;;;9.60;99.90;;;;;;4792311;29;20129;-86
2023/05/05 04:37:24;;;;;;;3.13;1.90;;;9.80;99.90;;;;;;4809019;29;20137;-86
2023/05/05 04:39:50;;;;;;;5.07;2.03;;;9.60;99.90;;;;;;4816242;29;20051;-86
2023/05/05 04:42:16;;;;;;;2.85;1.60;;;9.60;99.90;;;;;;4820384;29;20192;-86
2023/05/05 04:44:42;;;;;;;2.47;1.50;;;9.60;99.90;;;;;;4827071;29;20381;-86
2023/05/05 04:47:07;;;;;;;3.92;1.45;;;9.70;99.90;;;;;;4826389;29;20045;-86
2023/05/05 04:49:33;;;;;;;3.42;1.40;;;9.60;99.90;;;;;;4802411;29;20123;-86
2023/05/05 04:51:59;;;;;;;2.97;2.03;;;9.60;99.90;;;;;;4792105;29;20067;-85
2023/05/05 04:54:25;;;;;;;3.80;1.70;;;10.30;99.90;;;;;;4808556;29;20054;-85
2023/05/05 04:56:50;;;;;;;3.40;1.88;;;9.60;99.90;;;;;;4792189;29;20081;-85
2023/05/05 04:59:16;;;;;;;4.75;2.60;;;9.60;99.90;;;;;;4824996;29;20123;-86
2023/05/05 05:01:45;;;;;;;3.92;1.95;;;9.60;99.90;;;;;;4792764;29;20059;-85
2023/05/05 05:04:11;;;;;;;4.88;2.40;;;9.50;99.90;;;;;;4792383;29;20451;-85
2023/05/05 05:06:37;;;;;;;5.63;2.00;;;9.40;99.90;;;;;;4792005;29;20067;-84
2023/05/05 05:09:03;;;;;;;5.60;1.88;;;9.90;99.90;;;;;;4802889;29;20054;-85
2023/05/05 05:11:28;;;;;;;4.78;2.10;;;10.00;99.90;;;;;;4824565;29;20408;-85
2023/05/05 05:13:54;;;;;;;5.00;1.80;;;9.30;99.90;;;;;;4826304;29;20046;-85
2023/05/05 05:16:20;;;;;;;3.53;1.67;;;9.30;99.90;;;;;;4809366;29;20055;-85
2023/05/05 05:18:46;;;;;;;5.43;2.00;;;9.20;99.90;;;;;;4808195;29;20106;-85
2023/05/05 05:21:12;;;;;;;5.05;2.33;;;9.70;99.90;;;;;;4824244;29;20046;-85
2023/05/05 05:23:38;;;;;;;2.67;1.75;;;9.80;99.90;;;;;;4822417;29;20054;-85
2023/05/05 05:26:04;;;;;;;6.53;2.75;;;9.20;99.90;;;;;;4792968;29;20055;-84
2023/05/05 05:28:30;;;;;;;4.57;2.58;;;9.10;99.90;;;;;;4792298;29;20100;-85
2023/05/05 05:30:56;;;;;;;5.15;2.50;;;9.10;99.90;;;;;;4808786;29;20051;-85
2023/05/05 05:33:22;;;;;;;8.13;2.33;;;9.10;99.90;;;;;;4822065;29;20397;-85
2023/05/05 05:35:47;;;;;;;4.50;2.47;;;9.10;99.90;;;;;;4810433;29;20078;-85
2023/05/05 05:38:13;;;;;;;6.68;2.13;;;9.10;99.90;;;;;;4806988;29;20070;-85
2023/05/05 05:40:39;;;;;;;5.18;2.30;;;9.30;99.90;;;;;;4806508;29;20492;-85
2023/05/05 05:43:05;;;;;;;4.15;3.05;;;9.00;99.90;;;;;;4823470;29;20046;-86
2023/05/05 05:45:31;;;;;;;6.35;2.85;;;9.10;99.90;;;;;;4809129;29;20046;-86
2023/05/05 05:47:56;;;;;;;5.03;2.72;;;9.10;99.90;;;;;;4825975;29;20149;-89
2023/05/05 05:50:25;;;;;;;4.03;2.95;;;9.10;99.90;;;;;;4808879;29;20551;-85
2023/05/05 05:52:51;;;;;;;4.15;2.20;;;9.10;99.90;;;;;;4807698;29;20042;-85
2023/05/05 05:55:17;;;;;;;5.05;2.47;;;9.40;99.90;;;;;;4824681;29;20050;-85
2023/05/05 05:57:43;;;;;;;4.85;2.00;;;9.20;99.90;;;;;;4825523;29;20050;-86
2023/05/05 06:00:09;;;;;;;4.75;2.38;;;9.30;99.90;;;;;;4809302;29;20047;-85
2023/05/05 06:02:35;;;;;;;6.13;3.13;;;9.30;99.90;;;;;;4808880;29;20548;-85
2023/05/05 06:05:01;;;;;;;4.72;2.40;;;9.50;99.90;;;;;;4806167;29;20125;-85
2023/05/05 06:07:26;;;;;;;8.15;2.60;;;9.50;99.90;;;;;;4808908;29;20114;-85
2023/05/05 06:09:52;;;;;;;4.53;2.20;;;9.60;99.90;;;;;;4808333;29;20046;-85
2023/05/05 06:12:18;;;;;;;8.00;3.85;;;10.10;99.90;;;;;;4809032;29;20050;-84
2023/05/05 06:14:43;;;;;;;7.40;2.80;;;9.80;99.90;;;;;;4822383;29;20046;-86
2023/05/05 06:17:12;;;;;;;6.63;2.67;;;9.90;99.90;;;;;;4807282;29;20047;-89
2023/05/05 06:19:39;;;;;;;4.70;2.40;;;9.90;99.90;;;;;;4790662;29;20100;-85
2023/05/05 06:22:05;;;;;;;4.82;2.33;;;9.90;99.90;;;;;;4790607;29;20058;-86
2023/05/05 06:24:31;;;;;;;4.60;2.45;;;9.80;99.90;;;;;;4818083;29;20519;-86
2023/05/05 06:27:01;;;;;;;4.95;2.35;;;9.80;99.90;;;;;;4818013;29;20054;-85
2023/05/05 06:29:27;;;;;;;4.18;2.78;;;9.90;99.90;;;;;;4824986;29;20461;-85
2023/05/05 06:31:53;;;;;;;6.45;1.90;;;9.80;99.90;;;;;;4825034;29;20054;-84
2023/05/05 06:34:19;;;;;;;5.03;2.53;;;10.10;99.90;;;;;;4824842;29;20042;-85
2023/05/05 06:36:45;;;;;;;4.15;1.98;;;10.10;99.90;;;;;;4807270;29;20106;-85
2023/05/05 06:39:11;;;;;;;2.80;1.98;;;10.40;99.90;;;;;;4808164;29;20050;-84
2023/05/05 06:41:36;;;;;;;4.35;1.95;;;9.90;99.90;;;;;;4802858;29;20085;-85
2023/05/05 06:44:02;;;;;;;5.88;2.13;;;10.20;99.90;;;;;;4790101;29;20129;-84
2023/05/05 06:46:28;;;;;;;4.68;2.47;;;10.10;99.90;;;;;;4807425;29;20129;-83
2023/05/05 06:48:54;;;;;;;5.53;2.63;;;10.10;99.90;;;;;;4806589;29;20551;-85
2023/05/05 06:51:19;;;;;;;2.30;1.50;;;10.30;99.90;;;;;;4790121;29;20119;-84
2023/05/05 06:53:45;;;;;;;3.08;2.20;;;10.50;99.90;;;;;;4791476;29;20138;-85
2023/05/05 06:56:11;;;;;;;3.53;2.17;;;10.60;99.90;;;;;;4790488;29;20094;-83
2023/05/05 06:58:37;;;;;;;3.15;1.80;;;10.60;99.90;;;;;;4807152;29;20050;-84
2023/05/05 07:01:02;;;;;;;5.22;2.28;;;10.60;99.90;;;;;;4789943;29;20505;-85
2023/05/05 07:03:28;;;;;;;3.13;2.47;;;10.60;99.90;;;;;;4816088;29;20046;-86
2023/05/05 07:05:54;;;;;;;4.88;2.10;;;10.60;99.90;;;;;;4805265;29;20046;-86
2023/05/05 07:08:20;;;;;;;5.40;2.55;;;11.40;99.90;;;;;;4791705;29;20504;-83
2023/05/05 07:10:46;;;;;;;4.55;2.50;;;10.60;99.90;;;;;;4806118;29;20043;-81
2023/05/05 07:13:14;;;;;;;7.65;3.20;;;10.70;99.90;;;;;;4790110;29;20140;-85
2023/05/05 07:15:45;;;;;;;4.93;3.03;;;10.70;99.90;;;;;;4789799;29;20043;-83
2023/05/05 07:18:12;;;;;;;5.93;2.53;;;11.00;99.90;;;;;;4803463;29;20062;-82
2023/05/05 07:20:38;;;;;;;6.35;3.05;;;10.80;99.90;;;;;;4795563;29;20108;-81
2023/05/05 07:23:04;;;;;;;5.88;2.63;;;10.90;99.90;;;;;;4805766;29;20130;-83
2023/05/05 07:25:30;;;;;;;5.38;2.80;;;11.30;99.90;;;;;;4794955;29;20058;-80
2023/05/05 07:27:56;;;;;;;5.88;3.20;;;11.20;99.90;;;;;;4813217;29;20393;-81
2023/05/05 07:30:24;;;;;;;6.57;2.78;;;11.30;99.90;;;;;;4822752;29;20050;-81
2023/05/05 07:32:50;;;;;;;4.63;2.15;;;11.40;99.90;;;;;;4807734;29;20479;-81
2023/05/05 07:35:16;;;;;;;9.23;3.03;;;11.70;99.90;;;;;;4814193;29;20133;-81
2023/05/05 07:37:43;;;;;;;5.72;3.28;;;11.80;99.90;;;;;;4806002;29;20042;-80
2023/05/05 07:40:10;;;;;;;5.78;3.15;;;12.20;99.90;;;;;;4810900;29;20087;-80
2023/05/05 07:42:35;;;;;;;5.85;3.30;;;12.00;99.90;;;;;;4823757;29;20050;-81
2023/05/05 07:45:02;;;;;;;6.18;3.40;;;12.20;99.90;;;;;;4831590;29;20042;-81
2023/05/05 07:47:27;;;;;;;5.05;3.53;;;12.30;99.90;;;;;;4821819;29;20092;-80
2023/05/05 07:49:53;;;;;;;7.35;3.22;;;12.40;99.90;;;;;;4805849;29;20054;-81
2023/05/05 07:52:19;;;;;;;7.38;3.53;;;12.60;99.90;;;;;;4806392;29;20500;-81
2023/05/05 07:54:46;;;;;;;4.90;2.63;;;12.70;99.90;;;;;;4809596;29;20161;-80
2023/05/05 07:57:12;;;;;;;4.65;3.17;;;12.90;99.90;;;;;;4824047;29;20046;-81
2023/05/05 07:59:42;;;;;;;7.47;2.90;;;13.00;99.90;;;;;;4821561;29;20053;-80
2023/05/05 08:02:08;;;;;;;5.00;2.50;;;13.20;99.90;;;;;;4815913;29;20077;-81
2023/05/05 08:04:34;;;;;;;5.60;2.70;;;13.20;99.90;;;;;;4824160;29;20453;-80
2023/05/05 08:07:00;;;;;;;6.57;2.65;;;13.30;99.90;;;;;;4804846;29;20203;-81
2023/05/05 08:09:25;;;;;;;4.57;2.72;;;13.50;99.90;;;;;;4822808;29;20411;-80
2023/05/05 08:11:51;;;;;;;9.05;2.85;;;13.70;99.90;;;;;;4808922;29;20063;-81
2023/05/05 08:14:17;;;;;;;8.85;3.08;;;13.90;99.90;;;;;;4805132;29;20047;-81
2023/05/05 08:16:42;;;;;;;4.68;2.90;;;14.00;99.90;;;;;;4805421;29;20609;-81
2023/05/05 08:19:08;;;;;;;5.82;3.33;;;14.10;99.90;;;;;;4805537;29;20100;-81
2023/05/05 08:21:34;;;;;;;5.43;2.63;;;14.40;99.90;;;;;;4805209;29;20397;-81
2023/05/05 08:24:00;;;;;;;7.72;3.75;;;14.50;99.90;;;;;;4790773;29;20046;-81
2023/05/05 08:26:25;;;;;;;5.55;3.08;;;14.50;99.90;;;;;;4823298;29;20046;-82
2023/05/05 08:28:54;;;;;;;5.10;2.95;;;14.50;99.90;;;;;;4823291;29;20065;-81
2023/05/05 08:31:20;;;;;;;8.07;3.15;;;14.60;99.90;;;;;;4813611;29;20043;-81
2023/05/05 08:33:46;;;;;;;4.10;2.90;;;14.80;99.90;;;;;;4820702;29;20537;-81
2023/05/05 08:36:12;;;;;;;6.95;3.05;;;14.90;99.90;;;;;;4794420;29;20054;-81
2023/05/05 08:38:38;;;;;;;5.57;2.75;;;15.00;99.90;;;;;;4805483;29;20051;-82
2023/05/05 08:41:08;;;;;;;4.18;2.28;;;15.20;99.90;;;;;;4808137;29;20168;-83
2023/05/05 08:43:35;;;;;;;4.32;2.72;;;15.50;99.90;;;;;;4807299;29;20138;-81
2023/05/05 08:46:02;;;;;;;6.70;3.97;;;16.10;99.90;;;;;;4819266;29;20125;-83
2023/05/05 08:48:31;;;;;;;6.28;3.13;;;15.60;99.90;;;;;;4826731;29;20113;-82
2023/05/05 08:50:59;;;;;;;5.25;2.67;;;15.90;99.90;;;;;;4826111;29;20058;-81
2023/05/05 08:53:47;;;;;;;4.63;2.95;;;16.20;99.90;;;;;;4811740;29;20058;-89
2023/05/05 08:56:16;;;;;;;5.15;3.20;;;16.30;99.90;;;;;;4793530;29;20482;-81
2023/05/05 08:58:46;;;;;;;3.95;2.90;;;16.30;99.90;;;;;;4792156;29;20051;-82
2023/05/05 09:01:13;;;;;;;6.60;3.63;;;16.50;99.90;;;;;;4808601;29;20055;-84
2023/05/05 09:03:39;;;;;;;5.00;3.17;;;16.70;99.90;;;;;;4802491;29;20200;-84
2023/05/05 09:06:06;;;;;;;5.35;2.95;;;16.70;99.90;;;;;;4826277;29;20498;-82
2023/05/05 09:08:32;;;;;;;5.22;2.83;;;16.80;99.90;;;;;;4808476;29;20133;-84
2023/05/05 09:11:00;;;;;;;5.18;3.25;;;17.00;99.90;;;;;;4824497;29;20092;-82
2023/05/05 09:13:26;;;;;;;6.47;3.47;;;17.10;99.90;;;;;;4808473;29;20046;-81
2023/05/05 09:15:52;;;;;;;5.97;3.42;;;17.20;99.90;;;;;;4813684;29;20381;-81
2023/05/05 09:18:17;;;;;;;4.72;3.58;;;17.40;99.90;;;;;;4825458;29;20050;-82
2023/05/05 09:20:43;;;;;;;6.65;3.10;;;17.60;99.90;;;;;;4826226;29;20189;-81
2023/05/05 09:23:13;;;;;;;6.65;3.70;;;17.90;99.90;;;;;;4809870;29;20137;-82
2023/05/05 09:25:40;;;;;;;5.43;3.70;;;18.00;99.90;;;;;;4816738;29;20057;-82
2023/05/05 09:28:13;;;;;;;5.00;3.45;;;18.20;99.90;;;;;;4807804;29;20071;-82
2023/05/05 09:30:40;;;;;;;5.15;3.33;;;18.20;99.90;;;;;;4808643;29;20143;-83
2023/05/05 09:33:06;;;;;;;6.28;3.83;;;18.40;99.90;;;;;;4791836;29;20058;-82
2023/05/05 09:35:54;;;;;;;5.50;3.22;;;18.50;99.90;;;;;;4808776;29;20515;-83
2023/05/05 09:38:22;;;;;;;5.68;3.67;;;18.70;99.90;;;;;;4807723;29;20385;-84
2023/05/05 09:40:52;;;;;;;6.40;3.55;;;18.90;99.90;;;;;;4807774;29;20484;-82
2023/05/05 09:43:20;;;;;;;4.88;3.75;;;19.00;99.90;;;;;;4807659;29;20039;-83
2023/05/05 09:45:50;;;;;;;5.85;4.38;;;19.20;99.90;;;;;;4811617;29;20051;-81
2023/05/05 09:48:25;;;;;;;6.97;4.05;;;19.30;99.90;;;;;;4825484;29;20633;-82
2023/05/05 09:50:52;;;;;;;9.27;4.78;;;19.40;99.90;;;;;;4812247;29;20496;-81
2023/05/05 09:53:18;;;;;;;5.70;4.05;;;19.50;99.90;;;;;;4805351;29;20049;-86
2023/05/05 09:55:59;;;;;;;5.28;3.83;;;19.70;99.90;;;;;;4826010;29;20038;-83
2023/05/05 09:58:27;;;;;;;7.72;4.15;;;19.80;99.90;;;;;;4808639;29;20050;-82
2023/05/05 10:00:54;;;;;;;5.32;4.20;;;19.90;99.90;;;;;;4826026;29;20073;-82
2023/05/05 10:03:20;;;;;;;7.75;4.63;;;20.10;99.90;;;;;;4823947;29;20081;-82
2023/05/05 10:05:54;;;;;;;6.35;4.80;;;20.10;99.90;;;;;;4825191;29;20080;-82
2023/05/05 10:08:24;;;;;;;6.15;4.18;;;19.80;99.90;;;;;;4825552;29;20057;-82
2023/05/05 10:10:53;;;;;;;8.18;4.72;;;19.70;99.90;;;;;;4825383;29;20085;-82
2023/05/05 10:13:20;;;;;;;7.78;4.47;;;19.60;99.90;;;;;;4824052;29;20522;-82
2023/05/05 10:15:49;;;;;;;6.68;4.88;;;19.60;99.90;;;;;;4810830;29;20130;-81
2023/05/05 10:18:21;;;;;;;7.32;4.90;;;19.50;99.90;;;;;;4807070;29;20412;-81
2023/05/05 10:20:51;;;;;;;5.95;5.00;;;19.50;99.90;;;;;;4807165;29;20116;-81
2023/05/05 10:23:21;;;;;;;5.90;4.65;;;19.50;99.90;;;;;;4806908;29;20047;-82
2023/05/05 10:25:57;;;;;;;8.68;4.57;;;19.40;99.90;;;;;;4823896;29;20377;-82
2023/05/05 10:28:53;;;;;;;7.05;4.28;;;19.40;99.90;;;;;;4824632;29;20058;-82
2023/05/05 10:31:35;;;;;;;4.68;4.15;;;19.50;99.90;;;;;;4823764;29;20150;-83
2023/05/05 10:34:04;;;;;;;7.10;4.43;;;19.90;99.90;;;;;;4808855;29;20078;-82
2023/05/05 10:36:30;;;;;;;6.07;4.60;;;20.20;99.90;;;;;;4806941;29;20555;-82
2023/05/05 10:39:01;;;;;;;6.28;4.00;;;20.30;99.90;;;;;;4824624;29;20385;-83
2023/05/05 10:41:29;;;;;;;5.32;3.97;;;20.60;99.90;;;;;;4808382;29;20054;-83
2023/05/05 10:43:58;;;;;;;5.07;3.92;;;20.60;99.90;;;;;;4807999;29;20081;-84
2023/05/05 10:46:28;;;;;;;7.72;4.22;;;20.80;99.90;;;;;;4808032;29;20069;-83
2023/05/05 10:49:05;;;;;;;6.13;4.63;;;20.70;99.90;;;;;;4793197;29;20049;-80
2023/05/05 10:51:45;;;;;;;8.07;5.07;;;20.80;99.90;;;;;;4824924;29;20057;-80
2023/05/05 10:54:29;;;;;;;6.05;3.60;;;21.00;99.90;;;;;;4808343;29;20034;-84
2023/05/05 10:56:57;;;;;;;5.35;4.25;;;21.40;99.90;;;;;;4822462;29;20049;-82
2023/05/05 10:59:38;;;;;;;8.57;4.90;;;21.50;99.90;;;;;;4824559;29;20054;-83
2023/05/05 11:02:27;;;;;;;8.00;4.60;;;21.40;99.90;;;;;;4824321;29;20051;-81
2023/05/05 11:05:02;;;;;;;8.40;5.07;;;21.60;99.90;;;;;;4807831;29;20054;-82
2023/05/05 11:07:28;;;;;;;7.15;5.05;;;21.30;99.90;;;;;;4822917;29;20054;-82
2023/05/05 11:10:00;;;;;;;8.98;5.22;;;21.20;99.90;;;;;;4824032;29;20077;-81
2023/05/05 11:12:26;;;;;;;6.43;4.90;;;21.10;99.90;;;;;;4807876;29;20062;-82
2023/05/05 11:15:22;;;;;;;6.63;4.45;;;21.30;99.90;;;;;;4824479;29;20050;-82
2023/05/05 11:17:48;;;;;;;6.20;4.78;;;21.30;99.90;;;;;;4820453;29;20046;-82
2023/05/05 11:20:14;;;;;;;11.25;5.45;;;21.60;99.90;;;;;;4794613;29;20111;-82
2023/05/05 11:23:02;;;;;;;6.38;4.53;;;21.60;99.90;;;;;;4824376;29;20136;-80
2023/05/05 11:25:34;;;;;;;8.68;5.40;;;21.80;99.90;;;;;;4824234;29;20116;-81
2023/05/05 11:28:15;;;;;;;7.63;5.15;;;21.60;99.90;;;;;;4824284;29;20400;-80
2023/05/05 11:30:57;;;;;;;6.88;4.68;;;21.50;99.90;;;;;;4807829;29;20065;-81
2023/05/05 11:33:30;;;;;;;7.80;4.78;;;21.60;99.90;;;;;;4807720;29;20129;-80
2023/05/05 11:36:06;;;;;;;6.18;4.43;;;21.70;99.90;;;;;;4823968;29;20050;-80
2023/05/05 11:38:56;;;;;;;6.88;5.78;;;22.00;99.90;;;;;;4824310;29;20433;-81
2023/05/05 11:41:31;;;;;;;14.50;8.98;;;21.90;99.90;;;;;;4824055;29;20492;-80
2023/05/05 11:44:17;;;;;;;10.10;7.25;;;22.00;99.90;;;;;;4807340;29;20042;-81
2023/05/05 11:46:52;;;;;;;8.50;6.13;;;21.80;99.90;;;;;;4805239;29;20051;-83
2023/05/05 11:49:30;;;;;;;8.65;7.07;;;21.90;99.90;;;;;;4808561;29;20055;-81
2023/05/05 11:52:02;;;;;;;10.15;7.15;;;22.20;99.90;;;;;;4824673;29;20054;-82
2023/05/05 11:54:28;;;;;;;6.93;5.18;;;22.40;99.90;;;;;;4823528;29;20147;-81
2023/05/05 11:56:55;;;;;;;7.75;6.10;;;22.50;99.90;;;;;;4808157;29;20554;-82
2023/05/05 11:59:21;;;;;;;9.63;6.75;;;22.40;99.90;;;;;;4807938;29;20400;-82
2023/05/05 12:01:47;;;;;;;11.00;7.40;;;22.30;99.90;;;;;;4824036;29;20116;-81
2023/05/05 12:04:14;;;;;;;10.65;6.63;;;22.10;99.90;;;;;;4808475;29;20046;-82
2023/05/05 12:06:41;;;;;;;7.97;6.60;;;22.10;99.90;;;;;;4824304;29;20046;-81
2023/05/05 12:09:17;;;;;;;10.57;7.32;;;21.90;99.90;;;;;;4824173;29;20051;-82
2023/05/05 12:11:51;;;;;;;11.13;7.25;;;21.90;99.90;;;;;;4808266;29;20127;-82
2023/05/05 12:14:17;;;;;;;13.23;8.70;;;21.90;99.90;;;;;;4813838;29;20082;-81
2023/05/05 12:17:08;;;;;;;8.55;6.70;;;22.00;99.90;;;;;;4813216;29;20058;-82
2023/05/05 12:19:34;;;;;;;11.43;6.45;;;22.10;99.90;;;;;;4809068;29;20069;-82
2023/05/05 12:22:04;;;;;;;10.80;7.20;;;22.30;99.90;;;;;;4814295;29;20046;-83
2023/05/05 12:24:30;;;;;;;15.18;10.27;;;22.20;99.90;;;;;;4809375;29;20047;-82
2023/05/05 12:27:16;;;;;;;11.68;7.28;;;22.20;99.90;;;;;;4808978;29;20058;-83
2023/05/05 12:29:42;;;;;;;9.80;6.28;;;22.20;99.90;;;;;;4808842;29;20062;-83
2023/05/05 12:32:17;;;;;;;8.80;5.60;;;22.20;99.90;;;;;;4810012;29;20051;-84
2023/05/05 12:34:43;;;;;;;6.40;4.35;;;22.30;99.90;;;;;;4827981;29;20130;-84
2023/05/05 12:37:09;;;;;;;8.57;4.50;;;22.60;99.90;;;;;;4830582;29;20050;-83
2023/05/05 12:39:35;;;;;;;3.95;3.47;;;22.70;99.90;;;;;;4828502;29;20074;-82
2023/05/05 12:42:05;;;;;;;7.07;5.00;;;22.90;99.90;;;;;;4811365;29;20088;-83
2023/05/05 12:44:38;;;;;;;6.78;4.50;;;22.90;99.90;;;;;;4826525;29;20053;-82
2023/05/05 12:47:05;;;;;;;7.72;4.75;;;22.80;99.90;;;;;;4826362;29;20050;-82
2023/05/05 12:49:33;;;;;;;9.05;5.63;;;22.60;99.90;;;;;;4810314;29;20050;-85
2023/05/05 12:51:59;;;;;;;4.88;4.20;;;22.30;99.90;;;;;;4826054;29;20080;-83
2023/05/05 12:54:28;;;;;;;6.45;3.88;;;22.20;99.90;;;;;;4826604;29;20411;-83
2023/05/05 12:56:56;;;;;;;7.32;4.45;;;22.30;99.90;;;;;;4810180;29;20058;-82
2023/05/05 12:59:24;;;;;;;5.78;4.03;;;22.20;99.90;;;;;;4827217;29;20137;-84
2023/05/05 13:01:52;;;;;;;6.78;4.35;;;22.00;99.90;;;;;;4826404;29;20070;-83
2023/05/05 13:04:21;;;;;;;6.45;4.47;;;21.80;99.90;;;;;;4809924;29;20523;-82